Airfield :
LOGIN :

Register | Disclaimer

   EN    FR    IT 

 










Legend :    VFR   Marginal VFR   IFR   Intensive IFR   Very Intensive IFR
Visi :
Ceiling :
>= 8 km
>= 3000ft
5 to 8 km
1000 to 3000 ft
1500m to 5 km
500 to 1000 ft
800 to 1500m
200 to 500 ft
< 800m
< 200 ft
Symbols :   Thunderstorms  Fog  Heavy snow  Heavy precipitations  Wind > 20 kt
SIGMETs :     Misc.  Thunderstorms  Icing  Turbulence  Mountain Waves  Volcanic Ashes







- Airport Elevation : 28 ft
- IATA code : SOZ
- Download approach charts


LFKS - Solenzara

CURRENT METAR :
  • 151530Z AUTO 07004KT 9999 SCT026 SCT078 BKN150 21/16 Q1015

EXPIRED METARs :
  • 151500Z AUTO 08005KT 9999 FEW078 BKN150 BKN210 21/16 Q1015
  • 151430Z AUTO 09005KT 9999 FEW070 BKN150 BKN220 22/17 Q1015
  • 151400Z AUTO 08005KT 9999 BKN068 22/16 Q1015
  • 151330Z AUTO 08005KT 9999 SCT074 BKN230 22/16 Q1015
  • 151300Z AUTO 08005KT CAVOK 23/16 Q1015

TAF TAF LFKS
Valid from the 15 at 15:00 until the 16 at 15:00 UTC


151400Z 1515/1615 08005KT 9999 FEW020 SCT070 BKN130
BECMG 1521/1523 7000 RA FEW010 SCT015 BKN020
No reported NOTAMs for that airfield.
1 SIGMET reported for the Marseille FIR (LFMM) :
 
Severe turbulence
LFMM SIGMET 13 VALID 151400/151800 LFPW
LFMM MARSEILLE FIR/UIR SEV TURB FCST WI N4400 E00245 - N4600 E00300 - N4600 E00315 - N4345 E00415 - N4345 E00700 - N4245 E00700 - N4330 E00300 - N4400 E00245 SFC/FL070 STNR NC=



MET'MAP, your aeronautical weather chart ! - Copyright ORBIFLY December 2007 - Disclaimer

ORBIFLY MET'MAP TEAM :

Programming & Development : Alexandra Zaïnal
Concept & Development : Baudouin d'Aumeries
Co-Development & Prog : Marc-Olivier Méhu
Technical & hardware support : Manuel Goepfert

Contact : metmap@orbifly.com




SOURCES & CREDITS :

   NOAA